sensor_id;sensor_type;location;lat;lon;timestamp;temperature;humidity
16263;DHT22;8239;48.594;8.598;2023-02-01T00:02:26;1.40;99.90
16263;DHT22;8239;48.594;8.598;2023-02-01T00:04:53;1.40;99.90
16263;DHT22;8239;48.594;8.598;2023-02-01T00:07:20;1.40;99.90
16263;DHT22;8239;48.594;8.598;2023-02-01T00:09:47;1.40;99.90
16263;DHT22;8239;48.594;8.598;2023-02-01T00:12:15;1.40;99.90
16263;DHT22;8239;48.594;8.598;2023-02-01T00:14:42;1.40;99.90
16263;DHT22;8239;48.594;8.598;2023-02-01T00:17:09;1.40;99.90
16263;DHT22;8239;48.594;8.598;2023-02-01T00:19:36;1.40;99.90
16263;DHT22;8239;48.594;8.598;2023-02-01T00:22:03;1.40;99.90
16263;DHT22;8239;48.594;8.598;2023-02-01T00:24:30;1.40;99.90
16263;DHT22;8239;48.594;8.598;2023-02-01T00:26:57;1.40;99.90
16263;DHT22;8239;48.594;8.598;2023-02-01T00:29:26;1.40;99.90
16263;DHT22;8239;48.594;8.598;2023-02-01T00:31:53;1.40;99.90
16263;DHT22;8239;48.594;8.598;2023-02-01T00:34:20;1.40;99.90
16263;DHT22;8239;48.594;8.598;2023-02-01T00:36:47;1.40;99.90
16263;DHT22;8239;48.594;8.598;2023-02-01T00:39:16;1.40;99.90
16263;DHT22;8239;48.594;8.598;2023-02-01T00:41:43;1.40;99.90
16263;DHT22;8239;48.594;8.598;2023-02-01T00:44:10;1.40;99.90
16263;DHT22;8239;48.594;8.598;2023-02-01T00:46:38;1.40;99.90
16263;DHT22;8239;48.594;8.598;2023-02-01T00:49:05;1.40;99.90
16263;DHT22;8239;48.594;8.598;2023-02-01T00:51:34;1.30;99.90
16263;DHT22;8239;48.594;8.598;2023-02-01T00:54:01;1.30;99.90
16263;DHT22;8239;48.594;8.598;2023-02-01T00:56:29;1.30;99.90
16263;DHT22;8239;48.594;8.598;2023-02-01T00:58:56;1.30;99.90
16263;DHT22;8239;48.594;8.598;2023-02-01T01:01:24;1.30;99.90
16263;DHT22;8239;48.594;8.598;2023-02-01T01:03:54;1.40;99.90
16263;DHT22;8239;48.594;8.598;2023-02-01T01:06:23;1.40;99.90
16263;DHT22;8239;48.594;8.598;2023-02-01T01:08:51;1.40;99.90
16263;DHT22;8239;48.594;8.598;2023-02-01T01:11:21;1.40;99.90
16263;DHT22;8239;48.594;8.598;2023-02-01T01:13:49;1.40;99.90
16263;DHT22;8239;48.594;8.598;2023-02-01T01:16:17;1.40;99.90
16263;DHT22;8239;48.594;8.598;2023-02-01T01:18:45;1.50;99.90
16263;DHT22;8239;48.594;8.598;2023-02-01T01:21:15;1.50;99.90
16263;DHT22;8239;48.594;8.598;2023-02-01T01:23:43;1.60;99.90
16263;DHT22;8239;48.594;8.598;2023-02-01T01:26:13;1.60;99.90
16263;DHT22;8239;48.594;8.598;2023-02-01T01:28:40;1.60;99.90
16263;DHT22;8239;48.594;8.598;2023-02-01T01:31:08;1.60;99.90
16263;DHT22;8239;48.594;8.598;2023-02-01T01:33:35;1.60;99.90
16263;DHT22;8239;48.594;8.598;2023-02-01T01:36:04;1.60;99.90
16263;DHT22;8239;48.594;8.598;2023-02-01T01:38:33;1.60;99.90
16263;DHT22;8239;48.594;8.598;2023-02-01T01:41:00;1.70;99.90
16263;DHT22;8239;48.594;8.598;2023-02-01T01:43:52;1.70;99.90
16263;DHT22;8239;48.594;8.598;2023-02-01T01:46:21;1.70;99.90
16263;DHT22;8239;48.594;8.598;2023-02-01T01:48:51;1.70;99.90
16263;DHT22;8239;48.594;8.598;2023-02-01T01:51:21;1.70;99.90
16263;DHT22;8239;48.594;8.598;2023-02-01T01:53:57;1.80;99.90
16263;DHT22;8239;48.594;8.598;2023-02-01T01:56:27;1.80;99.90
16263;DHT22;8239;48.594;8.598;2023-02-01T01:58:56;1.80;99.90
16263;DHT22;8239;48.594;8.598;2023-02-01T02:01:23;1.80;99.90
16263;DHT22;8239;48.594;8.598;2023-02-01T02:03:50;1.90;99.90
16263;DHT22;8239;48.594;8.598;2023-02-01T02:06:27;1.90;99.90
16263;DHT22;8239;48.594;8.598;2023-02-01T02:08:58;1.90;99.90
16263;DHT22;8239;48.594;8.598;2023-02-01T02:11:25;1.90;99.90
16263;DHT22;8239;48.594;8.598;2023-02-01T02:13:54;1.90;99.90
16263;DHT22;8239;48.594;8.598;2023-02-01T02:16:39;1.90;99.90
16263;DHT22;8239;48.594;8.598;2023-02-01T02:19:29;1.90;99.90
16263;DHT22;8239;48.594;8.598;2023-02-01T02:22:31;1.90;99.90
16263;DHT22;8239;48.594;8.598;2023-02-01T02:28:31;1.80;99.90
16263;DHT22;8239;48.594;8.598;2023-02-01T02:36:10;1.80;99.90
16263;DHT22;8239;48.594;8.598;2023-02-01T02:38:44;1.80;99.90
16263;DHT22;8239;48.594;8.598;2023-02-01T02:41:16;1.80;99.90
16263;DHT22;8239;48.594;8.598;2023-02-01T02:44:01;1.70;99.90
16263;DHT22;8239;48.594;8.598;2023-02-01T02:46:50;1.70;99.90
16263;DHT22;8239;48.594;8.598;2023-02-01T02:49:40;1.70;99.90
16263;DHT22;8239;48.594;8.598;2023-02-01T02:52:13;1.70;99.90
16263;DHT22;8239;48.594;8.598;2023-02-01T02:55:00;1.70;99.90
16263;DHT22;8239;48.594;8.598;2023-02-01T02:57:31;1.70;99.90
16263;DHT22;8239;48.594;8.598;2023-02-01T03:00:19;1.70;99.90
16263;DHT22;8239;48.594;8.598;2023-02-01T03:03:04;1.70;99.90
16263;DHT22;8239;48.594;8.598;2023-02-01T03:05:49;1.70;99.90
16263;DHT22;8239;48.594;8.598;2023-02-01T03:08:19;1.80;99.90
16263;DHT22;8239;48.594;8.598;2023-02-01T03:10:52;1.80;99.90
16263;DHT22;8239;48.594;8.598;2023-02-01T03:13:26;1.80;99.90
16263;DHT22;8239;48.594;8.598;2023-02-01T03:15:59;1.80;99.90
16263;DHT22;8239;48.594;8.598;2023-02-01T03:18:32;1.80;99.90
16263;DHT22;8239;48.594;8.598;2023-02-01T03:21:04;1.80;99.90
16263;DHT22;8239;48.594;8.598;2023-02-01T03:23:36;1.80;99.90
16263;DHT22;8239;48.594;8.598;2023-02-01T03:26:06;1.90;99.90
16263;DHT22;8239;48.594;8.598;2023-02-01T03:28:34;1.90;99.90
16263;DHT22;8239;48.594;8.598;2023-02-01T03:31:04;1.90;99.90
16263;DHT22;8239;48.594;8.598;2023-02-01T03:33:31;1.90;99.90
16263;DHT22;8239;48.594;8.598;2023-02-01T03:36:12;1.90;99.90
16263;DHT22;8239;48.594;8.598;2023-02-01T03:38:46;1.90;99.90
16263;DHT22;8239;48.594;8.598;2023-02-01T03:41:19;1.90;99.90
16263;DHT22;8239;48.594;8.598;2023-02-01T03:43:53;1.90;99.90
16263;DHT22;8239;48.594;8.598;2023-02-01T03:46:28;1.90;99.90
16263;DHT22;8239;48.594;8.598;2023-02-01T03:49:00;2.00;99.90
16263;DHT22;8239;48.594;8.598;2023-02-01T03:51:29;2.00;99.90
16263;DHT22;8239;48.594;8.598;2023-02-01T03:53:59;2.00;99.90
16263;DHT22;8239;48.594;8.598;2023-02-01T03:56:29;2.00;99.90
16263;DHT22;8239;48.594;8.598;2023-02-01T03:58:57;2.00;99.90
16263;DHT22;8239;48.594;8.598;2023-02-01T04:01:27;2.00;99.90
16263;DHT22;8239;48.594;8.598;2023-02-01T04:03:54;2.00;99.90
16263;DHT22;8239;48.594;8.598;2023-02-01T04:06:21;2.00;99.90
16263;DHT22;8239;48.594;8.598;2023-02-01T04:08:48;2.00;99.90
16263;DHT22;8239;48.594;8.598;2023-02-01T04:11:17;2.10;99.90
16263;DHT22;8239;48.594;8.598;2023-02-01T04:13:45;2.10;99.90
16263;DHT22;8239;48.594;8.598;2023-02-01T04:16:12;2.10;99.90
16263;DHT22;8239;48.594;8.598;2023-02-01T04:18:38;2.10;99.90
16263;DHT22;8239;48.594;8.598;2023-02-01T04:21:05;2.10;99.90
16263;DHT22;8239;48.594;8.598;2023-02-01T04:23:32;2.10;99.90
16263;DHT22;8239;48.594;8.598;2023-02-01T04:26:00;2.10;99.90
16263;DHT22;8239;48.594;8.598;2023-02-01T04:28:29;2.10;99.90
16263;DHT22;8239;48.594;8.598;2023-02-01T04:30:56;2.10;99.90
16263;DHT22;8239;48.594;8.598;2023-02-01T04:33:24;2.10;99.90
16263;DHT22;8239;48.594;8.598;2023-02-01T04:35:51;2.10;99.90
16263;DHT22;8239;48.594;8.598;2023-02-01T04:38:18;2.10;99.90
16263;DHT22;8239;48.594;8.598;2023-02-01T04:40:47;2.20;99.90
16263;DHT22;8239;48.594;8.598;2023-02-01T04:43:14;2.20;99.90
16263;DHT22;8239;48.594;8.598;2023-02-01T04:45:46;2.10;99.90
16263;DHT22;8239;48.594;8.598;2023-02-01T04:48:14;2.10;99.90
16263;DHT22;8239;48.594;8.598;2023-02-01T04:50:41;2.10;99.90
16263;DHT22;8239;48.594;8.598;2023-02-01T04:53:08;2.10;99.90
16263;DHT22;8239;48.594;8.598;2023-02-01T04:55:35;2.10;99.90
16263;DHT22;8239;48.594;8.598;2023-02-01T04:58:02;2.10;99.90
16263;DHT22;8239;48.594;8.598;2023-02-01T05:00:29;2.10;99.90
16263;DHT22;8239;48.594;8.598;2023-02-01T05:02:57;2.10;99.90
16263;DHT22;8239;48.594;8.598;2023-02-01T05:05:24;2.10;99.90
16263;DHT22;8239;48.594;8.598;2023-02-01T05:07:52;2.10;99.90
16263;DHT22;8239;48.594;8.598;2023-02-01T05:10:19;2.10;99.90
16263;DHT22;8239;48.594;8.598;2023-02-01T05:12:47;2.10;99.90
16263;DHT22;8239;48.594;8.598;2023-02-01T05:15:31;2.20;99.90
16263;DHT22;8239;48.594;8.598;2023-02-01T05:18:00;2.50;99.90
16263;DHT22;8239;48.594;8.598;2023-02-01T05:20:27;2.60;99.90
16263;DHT22;8239;48.594;8.598;2023-02-01T05:22:54;2.60;99.90
16263;DHT22;8239;48.594;8.598;2023-02-01T05:25:21;2.50;99.90
16263;DHT22;8239;48.594;8.598;2023-02-01T05:27:48;2.50;99.90
16263;DHT22;8239;48.594;8.598;2023-02-01T05:30:15;2.40;99.90
16263;DHT22;8239;48.594;8.598;2023-02-01T05:32:42;2.40;99.90
16263;DHT22;8239;48.594;8.598;2023-02-01T05:35:11;2.30;99.90
16263;DHT22;8239;48.594;8.598;2023-02-01T05:37:38;2.30;99.90
16263;DHT22;8239;48.594;8.598;2023-02-01T05:40:07;2.30;99.90
16263;DHT22;8239;48.594;8.598;2023-02-01T05:42:34;2.20;99.90
16263;DHT22;8239;48.594;8.598;2023-02-01T05:45:01;2.20;99.90
16263;DHT22;8239;48.594;8.598;2023-02-01T05:47:28;2.20;99.90
16263;DHT22;8239;48.594;8.598;2023-02-01T05:49:55;2.30;99.90
16263;DHT22;8239;48.594;8.598;2023-02-01T05:52:24;2.30;99.90
16263;DHT22;8239;48.594;8.598;2023-02-01T05:54:50;2.40;99.90
16263;DHT22;8239;48.594;8.598;2023-02-01T05:57:18;2.40;99.90
16263;DHT22;8239;48.594;8.598;2023-02-01T05:59:45;2.40;99.90
16263;DHT22;8239;48.594;8.598;2023-02-01T06:02:13;2.40;99.90
16263;DHT22;8239;48.594;8.598;2023-02-01T06:04:40;2.50;99.90
16263;DHT22;8239;48.594;8.598;2023-02-01T06:07:08;2.50;99.90
16263;DHT22;8239;48.594;8.598;2023-02-01T06:09:37;2.50;99.90
16263;DHT22;8239;48.594;8.598;2023-02-01T06:12:05;2.50;99.90
16263;DHT22;8239;48.594;8.598;2023-02-01T06:14:32;2.50;99.90
16263;DHT22;8239;48.594;8.598;2023-02-01T06:16:59;2.50;99.90
16263;DHT22;8239;48.594;8.598;2023-02-01T06:19:26;2.40;99.90
16263;DHT22;8239;48.594;8.598;2023-02-01T06:21:53;2.40;99.90
16263;DHT22;8239;48.594;8.598;2023-02-01T06:24:20;2.40;99.90
16263;DHT22;8239;48.594;8.598;2023-02-01T06:26:48;2.40;99.90
16263;DHT22;8239;48.594;8.598;2023-02-01T06:29:15;2.40;99.90
16263;DHT22;8239;48.594;8.598;2023-02-01T06:31:42;2.40;99.90
16263;DHT22;8239;48.594;8.598;2023-02-01T06:34:09;2.40;99.90
16263;DHT22;8239;48.594;8.598;2023-02-01T06:36:36;2.40;99.90
16263;DHT22;8239;48.594;8.598;2023-02-01T06:39:03;2.40;99.90
16263;DHT22;8239;48.594;8.598;2023-02-01T06:41:30;2.40;99.90
16263;DHT22;8239;48.594;8.598;2023-02-01T06:44:01;2.40;99.90
16263;DHT22;8239;48.594;8.598;2023-02-01T06:46:28;2.40;99.90
16263;DHT22;8239;48.594;8.598;2023-02-01T06:48:55;2.40;99.90
16263;DHT22;8239;48.594;8.598;2023-02-01T06:51:24;2.40;99.90
16263;DHT22;8239;48.594;8.598;2023-02-01T06:53:51;2.40;99.90
16263;DHT22;8239;48.594;8.598;2023-02-01T06:56:18;2.40;99.90
16263;DHT22;8239;48.594;8.598;2023-02-01T06:58:45;2.30;99.90
16263;DHT22;8239;48.594;8.598;2023-02-01T07:01:14;2.30;99.90
16263;DHT22;8239;48.594;8.598;2023-02-01T07:03:42;2.40;99.90
16263;DHT22;8239;48.594;8.598;2023-02-01T07:06:09;2.40;99.90
16263;DHT22;8239;48.594;8.598;2023-02-01T07:08:37;2.50;99.90
16263;DHT22;8239;48.594;8.598;2023-02-01T07:11:06;2.50;99.90
16263;DHT22;8239;48.594;8.598;2023-02-01T07:13:33;2.50;99.90
16263;DHT22;8239;48.594;8.598;2023-02-01T07:16:01;2.50;99.90
16263;DHT22;8239;48.594;8.598;2023-02-01T07:18:31;2.50;99.90
16263;DHT22;8239;48.594;8.598;2023-02-01T07:20:58;2.60;99.90
16263;DHT22;8239;48.594;8.598;2023-02-01T07:23:26;2.60;99.90
16263;DHT22;8239;48.594;8.598;2023-02-01T07:25:54;2.60;99.90
16263;DHT22;8239;48.594;8.598;2023-02-01T07:28:21;2.60;99.90
16263;DHT22;8239;48.594;8.598;2023-02-01T07:30:48;2.60;99.90
16263;DHT22;8239;48.594;8.598;2023-02-01T07:33:18;2.60;99.90
16263;DHT22;8239;48.594;8.598;2023-02-01T07:35:46;2.60;99.90
16263;DHT22;8239;48.594;8.598;2023-02-01T07:38:14;2.70;99.90
16263;DHT22;8239;48.594;8.598;2023-02-01T07:40:41;2.70;99.90
16263;DHT22;8239;48.594;8.598;2023-02-01T07:43:08;2.70;99.90
16263;DHT22;8239;48.594;8.598;2023-02-01T07:45:36;2.70;99.90
16263;DHT22;8239;48.594;8.598;2023-02-01T07:48:04;2.70;99.90
16263;DHT22;8239;48.594;8.598;2023-02-01T07:50:31;2.80;99.90
16263;DHT22;8239;48.594;8.598;2023-02-01T07:53:00;2.80;99.90
16263;DHT22;8239;48.594;8.598;2023-02-01T07:55:27;2.80;99.90
16263;DHT22;8239;48.594;8.598;2023-02-01T07:57:57;2.90;99.90
16263;DHT22;8239;48.594;8.598;2023-02-01T08:00:24;2.90;99.90
16263;DHT22;8239;48.594;8.598;2023-02-01T08:03:09;2.90;99.90
16263;DHT22;8239;48.594;8.598;2023-02-01T08:05:36;3.00;99.90
16263;DHT22;8239;48.594;8.598;2023-02-01T08:08:05;3.00;99.90
16263;DHT22;8239;48.594;8.598;2023-02-01T08:10:33;3.10;99.90
16263;DHT22;8239;48.594;8.598;2023-02-01T08:13:01;3.10;99.90
16263;DHT22;8239;48.594;8.598;2023-02-01T08:15:28;3.10;99.90
16263;DHT22;8239;48.594;8.598;2023-02-01T08:17:55;3.20;99.90
16263;DHT22;8239;48.594;8.598;2023-02-01T08:20:24;3.20;99.90
16263;DHT22;8239;48.594;8.598;2023-02-01T08:22:52;3.30;99.90
16263;DHT22;8239;48.594;8.598;2023-02-01T08:25:21;3.30;99.90
16263;DHT22;8239;48.594;8.598;2023-02-01T08:27:50;3.40;99.90
16263;DHT22;8239;48.594;8.598;2023-02-01T08:30:17;3.40;99.90
16263;DHT22;8239;48.594;8.598;2023-02-01T08:32:44;3.40;99.90
16263;DHT22;8239;48.594;8.598;2023-02-01T08:35:11;3.40;99.90
16263;DHT22;8239;48.594;8.598;2023-02-01T08:37:38;3.30;99.90
16263;DHT22;8239;48.594;8.598;2023-02-01T08:40:06;3.30;99.90
16263;DHT22;8239;48.594;8.598;2023-02-01T08:42:35;3.20;99.90
16263;DHT22;8239;48.594;8.598;2023-02-01T08:45:20;3.20;99.90
16263;DHT22;8239;48.594;8.598;2023-02-01T08:47:49;3.20;99.90
16263;DHT22;8239;48.594;8.598;2023-02-01T08:50:17;3.10;99.90
16263;DHT22;8239;48.594;8.598;2023-02-01T08:52:45;3.10;99.90
16263;DHT22;8239;48.594;8.598;2023-02-01T08:55:13;3.00;99.90
16263;DHT22;8239;48.594;8.598;2023-02-01T08:57:42;3.00;99.90
16263;DHT22;8239;48.594;8.598;2023-02-01T09:00:13;3.00;99.90
16263;DHT22;8239;48.594;8.598;2023-02-01T09:02:40;3.00;99.90
16263;DHT22;8239;48.594;8.598;2023-02-01T09:05:08;3.00;99.90
16263;DHT22;8239;48.594;8.598;2023-02-01T09:07:36;3.00;99.90
16263;DHT22;8239;48.594;8.598;2023-02-01T09:10:04;3.00;99.90
16263;DHT22;8239;48.594;8.598;2023-02-01T09:12:32;3.10;99.90
16263;DHT22;8239;48.594;8.598;2023-02-01T09:15:00;3.20;99.90
16263;DHT22;8239;48.594;8.598;2023-02-01T09:17:28;3.40;99.90
16263;DHT22;8239;48.594;8.598;2023-02-01T09:19:56;3.70;99.90
16263;DHT22;8239;48.594;8.598;2023-02-01T09:22:23;3.90;99.90
16263;DHT22;8239;48.594;8.598;2023-02-01T09:24:50;4.10;99.90
16263;DHT22;8239;48.594;8.598;2023-02-01T09:27:17;4.20;99.90
16263;DHT22;8239;48.594;8.598;2023-02-01T09:29:44;4.20;99.90
16263;DHT22;8239;48.594;8.598;2023-02-01T09:32:16;4.10;99.90
16263;DHT22;8239;48.594;8.598;2023-02-01T09:34:43;4.00;99.90
16263;DHT22;8239;48.594;8.598;2023-02-01T09:37:10;3.90;99.90
16263;DHT22;8239;48.594;8.598;2023-02-01T09:39:37;3.90;99.90
16263;DHT22;8239;48.594;8.598;2023-02-01T09:42:16;3.80;99.90
16263;DHT22;8239;48.594;8.598;2023-02-01T09:45:02;3.90;99.90
16263;DHT22;8239;48.594;8.598;2023-02-01T09:47:35;3.90;99.90
16263;DHT22;8239;48.594;8.598;2023-02-01T09:50:05;4.00;99.90
16263;DHT22;8239;48.594;8.598;2023-02-01T09:52:36;4.10;99.90
16263;DHT22;8239;48.594;8.598;2023-02-01T09:55:10;4.20;99.90
16263;DHT22;8239;48.594;8.598;2023-02-01T09:57:47;4.40;99.90
16263;DHT22;8239;48.594;8.598;2023-02-01T10:00:20;4.50;99.90
16263;DHT22;8239;48.594;8.598;2023-02-01T10:02:51;4.90;99.90
16263;DHT22;8239;48.594;8.598;2023-02-01T10:05:30;5.30;99.90
16263;DHT22;8239;48.594;8.598;2023-02-01T10:08:04;6.10;99.90
16263;DHT22;8239;48.594;8.598;2023-02-01T10:10:42;7.00;99.90
16263;DHT22;8239;48.594;8.598;2023-02-01T10:16:19;8.00;98.90
16263;DHT22;8239;48.594;8.598;2023-02-01T10:21:53;7.50;96.60
16263;DHT22;8239;48.594;8.598;2023-02-01T10:24:33;7.00;97.00
16263;DHT22;8239;48.594;8.598;2023-02-01T10:27:06;6.70;97.60
16263;DHT22;8239;48.594;8.598;2023-02-01T10:29:37;6.30;97.60
16263;DHT22;8239;48.594;8.598;2023-02-01T10:32:11;5.90;98.40
16263;DHT22;8239;48.594;8.598;2023-02-01T10:34:41;5.70;99.50
16263;DHT22;8239;48.594;8.598;2023-02-01T10:37:20;5.50;99.90
16263;DHT22;8239;48.594;8.598;2023-02-01T10:39:52;5.20;99.90
16263;DHT22;8239;48.594;8.598;2023-02-01T10:42:23;5.00;99.90
16263;DHT22;8239;48.594;8.598;2023-02-01T10:44:51;4.90;99.90
16263;DHT22;8239;48.594;8.598;2023-02-01T10:47:19;4.80;99.90
16263;DHT22;8239;48.594;8.598;2023-02-01T10:49:55;4.70;99.90
16263;DHT22;8239;48.594;8.598;2023-02-01T10:52:31;4.60;99.90
16263;DHT22;8239;48.594;8.598;2023-02-01T10:55:29;4.60;99.90
16263;DHT22;8239;48.594;8.598;2023-02-01T10:57:57;4.50;99.90
16263;DHT22;8239;48.594;8.598;2023-02-01T11:00:25;4.50;99.90
16263;DHT22;8239;48.594;8.598;2023-02-01T11:02:53;4.50;99.90
16263;DHT22;8239;48.594;8.598;2023-02-01T11:05:24;4.40;99.90
16263;DHT22;8239;48.594;8.598;2023-02-01T11:07:53;4.40;99.90
16263;DHT22;8239;48.594;8.598;2023-02-01T11:10:38;4.30;99.90
16263;DHT22;8239;48.594;8.598;2023-02-01T11:13:13;4.40;99.90
16263;DHT22;8239;48.594;8.598;2023-02-01T11:15:43;4.30;99.90
16263;DHT22;8239;48.594;8.598;2023-02-01T11:18:25;4.20;99.90
16263;DHT22;8239;48.594;8.598;2023-02-01T11:20:55;4.30;99.90
16263;DHT22;8239;48.594;8.598;2023-02-01T11:23:24;4.40;99.90
16263;DHT22;8239;48.594;8.598;2023-02-01T11:25:54;4.50;99.90
16263;DHT22;8239;48.594;8.598;2023-02-01T11:28:24;4.60;99.90
16263;DHT22;8239;48.594;8.598;2023-02-01T11:30:53;4.50;99.90
16263;DHT22;8239;48.594;8.598;2023-02-01T11:33:24;4.50;99.90
16263;DHT22;8239;48.594;8.598;2023-02-01T11:35:57;4.50;99.90
16263;DHT22;8239;48.594;8.598;2023-02-01T11:38:28;4.40;99.90
16263;DHT22;8239;48.594;8.598;2023-02-01T11:41:10;4.40;99.90
16263;DHT22;8239;48.594;8.598;2023-02-01T11:43:50;4.40;99.90
16263;DHT22;8239;48.594;8.598;2023-02-01T11:46:19;4.40;99.90
16263;DHT22;8239;48.594;8.598;2023-02-01T11:48:51;4.30;99.90
16263;DHT22;8239;48.594;8.598;2023-02-01T11:51:31;4.40;99.90
16263;DHT22;8239;48.594;8.598;2023-02-01T11:57:18;4.30;99.90
16263;DHT22;8239;48.594;8.598;2023-02-01T11:59:58;4.40;99.90
16263;DHT22;8239;48.594;8.598;2023-02-01T12:06:09;4.50;99.90
16263;DHT22;8239;48.594;8.598;2023-02-01T12:11:43;4.60;99.90
16263;DHT22;8239;48.594;8.598;2023-02-01T12:14:27;4.50;99.90
16263;DHT22;8239;48.594;8.598;2023-02-01T12:17:11;4.40;99.90
16263;DHT22;8239;48.594;8.598;2023-02-01T12:19:58;4.50;99.90
16263;DHT22;8239;48.594;8.598;2023-02-01T12:22:40;4.50;99.90
16263;DHT22;8239;48.594;8.598;2023-02-01T12:25:33;4.60;99.90
16263;DHT22;8239;48.594;8.598;2023-02-01T12:28:22;4.80;99.90
16263;DHT22;8239;48.594;8.598;2023-02-01T12:31:17;4.70;99.90
16263;DHT22;8239;48.594;8.598;2023-02-01T12:34:11;4.70;99.90
16263;DHT22;8239;48.594;8.598;2023-02-01T12:36:48;4.50;99.90
16263;DHT22;8239;48.594;8.598;2023-02-01T12:39:22;4.50;99.90
16263;DHT22;8239;48.594;8.598;2023-02-01T12:41:57;4.40;99.90
16263;DHT22;8239;48.594;8.598;2023-02-01T12:44:34;4.30;99.90
16263;DHT22;8239;48.594;8.598;2023-02-01T12:47:07;4.20;99.90
16263;DHT22;8239;48.594;8.598;2023-02-01T12:49:44;4.10;99.90
16263;DHT22;8239;48.594;8.598;2023-02-01T12:52:15;4.10;99.90
16263;DHT22;8239;48.594;8.598;2023-02-01T12:54:48;4.10;99.90
16263;DHT22;8239;48.594;8.598;2023-02-01T12:57:23;4.10;99.90
16263;DHT22;8239;48.594;8.598;2023-02-01T12:59:56;4.10;99.90
16263;DHT22;8239;48.594;8.598;2023-02-01T13:02:30;4.10;99.90
16263;DHT22;8239;48.594;8.598;2023-02-01T13:05:11;4.00;99.90
16263;DHT22;8239;48.594;8.598;2023-02-01T13:07:43;3.90;99.90
16263;DHT22;8239;48.594;8.598;2023-02-01T13:10:15;3.90;99.90
16263;DHT22;8239;48.594;8.598;2023-02-01T13:12:50;3.90;99.90
16263;DHT22;8239;48.594;8.598;2023-02-01T13:15:23;3.90;99.90
16263;DHT22;8239;48.594;8.598;2023-02-01T13:17:54;4.20;99.90
16263;DHT22;8239;48.594;8.598;2023-02-01T13:20:25;4.50;99.90
16263;DHT22;8239;48.594;8.598;2023-02-01T13:23:02;4.90;99.90
16263;DHT22;8239;48.594;8.598;2023-02-01T13:25:35;5.80;99.90
16263;DHT22;8239;48.594;8.598;2023-02-01T13:28:10;6.30;99.90
16263;DHT22;8239;48.594;8.598;2023-02-01T13:31:02;6.40;99.90
16263;DHT22;8239;48.594;8.598;2023-02-01T13:34:03;6.10;99.90
16263;DHT22;8239;48.594;8.598;2023-02-01T13:36:49;5.70;99.90
16263;DHT22;8239;48.594;8.598;2023-02-01T13:39:35;5.30;99.90
16263;DHT22;8239;48.594;8.598;2023-02-01T13:42:05;5.00;99.90
16263;DHT22;8239;48.594;8.598;2023-02-01T13:44:43;4.70;99.90
16263;DHT22;8239;48.594;8.598;2023-02-01T13:47:20;4.50;99.90
16263;DHT22;8239;48.594;8.598;2023-02-01T13:49:49;4.40;99.90
16263;DHT22;8239;48.594;8.598;2023-02-01T13:52:36;4.30;99.90
16263;DHT22;8239;48.594;8.598;2023-02-01T13:55:16;4.20;99.90
16263;DHT22;8239;48.594;8.598;2023-02-01T13:57:51;4.30;99.90
16263;DHT22;8239;48.594;8.598;2023-02-01T14:00:28;4.60;99.90
16263;DHT22;8239;48.594;8.598;2023-02-01T14:03:10;4.70;99.90
16263;DHT22;8239;48.594;8.598;2023-02-01T14:06:05;5.10;99.90
16263;DHT22;8239;48.594;8.598;2023-02-01T14:08:46;6.00;99.90
16263;DHT22;8239;48.594;8.598;2023-02-01T14:11:41;6.50;99.90
16263;DHT22;8239;48.594;8.598;2023-02-01T14:17:41;6.30;99.90
16263;DHT22;8239;48.594;8.598;2023-02-01T14:23:26;5.70;99.90
16263;DHT22;8239;48.594;8.598;2023-02-01T14:26:07;5.40;99.90
16263;DHT22;8239;48.594;8.598;2023-02-01T14:28:39;5.60;99.90
16263;DHT22;8239;48.594;8.598;2023-02-01T14:31:25;5.70;99.90
16263;DHT22;8239;48.594;8.598;2023-02-01T14:34:00;5.60;99.90
16263;DHT22;8239;48.594;8.598;2023-02-01T14:36:40;5.30;99.90
16263;DHT22;8239;48.594;8.598;2023-02-01T14:39:24;5.00;99.90
16263;DHT22;8239;48.594;8.598;2023-02-01T14:41:55;4.80;99.90
16263;DHT22;8239;48.594;8.598;2023-02-01T14:44:26;4.60;99.90
16263;DHT22;8239;48.594;8.598;2023-02-01T14:47:28;4.50;99.90
16263;DHT22;8239;48.594;8.598;2023-02-01T14:50:25;4.50;99.90
16263;DHT22;8239;48.594;8.598;2023-02-01T14:55:51;4.20;99.90
16263;DHT22;8239;48.594;8.598;2023-02-01T14:58:32;4.10;99.90
16263;DHT22;8239;48.594;8.598;2023-02-01T15:01:04;3.90;99.90
16263;DHT22;8239;48.594;8.598;2023-02-01T15:03:44;3.90;99.90
16263;DHT22;8239;48.594;8.598;2023-02-01T15:06:26;3.80;99.90
16263;DHT22;8239;48.594;8.598;2023-02-01T15:08:57;3.70;99.90
16263;DHT22;8239;48.594;8.598;2023-02-01T15:11:25;3.60;99.90
16263;DHT22;8239;48.594;8.598;2023-02-01T15:13:53;3.50;99.90
16263;DHT22;8239;48.594;8.598;2023-02-01T15:16:23;3.40;99.90
16263;DHT22;8239;48.594;8.598;2023-02-01T15:18:50;3.40;99.90
16263;DHT22;8239;48.594;8.598;2023-02-01T15:21:21;3.40;99.90
16263;DHT22;8239;48.594;8.598;2023-02-01T15:23:49;3.40;99.90
16263;DHT22;8239;48.594;8.598;2023-02-01T15:26:26;3.30;99.90
16263;DHT22;8239;48.594;8.598;2023-02-01T15:28:54;3.30;99.90
16263;DHT22;8239;48.594;8.598;2023-02-01T15:31:33;3.40;99.90
16263;DHT22;8239;48.594;8.598;2023-02-01T15:34:01;3.30;99.90
16263;DHT22;8239;48.594;8.598;2023-02-01T15:36:29;3.30;99.90
16263;DHT22;8239;48.594;8.598;2023-02-01T15:39:18;3.30;99.90
16263;DHT22;8239;48.594;8.598;2023-02-01T15:41:50;3.30;99.90
16263;DHT22;8239;48.594;8.598;2023-02-01T15:44:26;3.30;99.90
16263;DHT22;8239;48.594;8.598;2023-02-01T15:46:54;3.30;99.90
16263;DHT22;8239;48.594;8.598;2023-02-01T15:49:26;3.30;99.90
16263;DHT22;8239;48.594;8.598;2023-02-01T15:51:56;3.30;99.90
16263;DHT22;8239;48.594;8.598;2023-02-01T15:54:27;3.30;99.90
16263;DHT22;8239;48.594;8.598;2023-02-01T15:56:59;3.20;99.90
16263;DHT22;8239;48.594;8.598;2023-02-01T15:59:29;3.20;99.90
16263;DHT22;8239;48.594;8.598;2023-02-01T16:01:58;3.20;99.90
16263;DHT22;8239;48.594;8.598;2023-02-01T16:04:27;3.20;99.90
16263;DHT22;8239;48.594;8.598;2023-02-01T16:06:59;3.20;99.90
16263;DHT22;8239;48.594;8.598;2023-02-01T16:09:38;3.20;99.90
16263;DHT22;8239;48.594;8.598;2023-02-01T16:12:29;3.20;99.90
16263;DHT22;8239;48.594;8.598;2023-02-01T16:14:57;3.10;99.90
16263;DHT22;8239;48.594;8.598;2023-02-01T16:17:24;3.10;99.90
16263;DHT22;8239;48.594;8.598;2023-02-01T16:19:51;3.10;99.90
16263;DHT22;8239;48.594;8.598;2023-02-01T16:22:19;3.10;99.90
16263;DHT22;8239;48.594;8.598;2023-02-01T16:24:46;3.00;99.90
16263;DHT22;8239;48.594;8.598;2023-02-01T16:27:13;3.00;99.90
16263;DHT22;8239;48.594;8.598;2023-02-01T16:29:40;3.00;99.90
16263;DHT22;8239;48.594;8.598;2023-02-01T16:32:15;3.00;99.90
16263;DHT22;8239;48.594;8.598;2023-02-01T16:34:43;2.90;99.90
16263;DHT22;8239;48.594;8.598;2023-02-01T16:37:12;2.90;99.90
16263;DHT22;8239;48.594;8.598;2023-02-01T16:39:41;2.90;99.90
16263;DHT22;8239;48.594;8.598;2023-02-01T16:42:12;2.90;99.90
16263;DHT22;8239;48.594;8.598;2023-02-01T16:44:39;2.90;99.90
16263;DHT22;8239;48.594;8.598;2023-02-01T16:47:12;2.90;99.90
16263;DHT22;8239;48.594;8.598;2023-02-01T16:49:41;2.90;99.90
16263;DHT22;8239;48.594;8.598;2023-02-01T16:52:12;2.90;99.90
16263;DHT22;8239;48.594;8.598;2023-02-01T16:54:41;2.90;99.90
16263;DHT22;8239;48.594;8.598;2023-02-01T16:57:11;2.90;99.90
16263;DHT22;8239;48.594;8.598;2023-02-01T16:59:39;2.90;99.90
16263;DHT22;8239;48.594;8.598;2023-02-01T17:02:08;2.90;99.90
16263;DHT22;8239;48.594;8.598;2023-02-01T17:04:36;2.90;99.90
16263;DHT22;8239;48.594;8.598;2023-02-01T17:07:03;2.90;99.90